Time;durP1;ratioP1;P1;durP2;ratioP2;P2;SDS_P1;SDS_P2;PMS_P1;PMS_P2;Temp;Humidity;BMP_temperature;BMP_pressure;BME280_temperature;BME280_humidity;BME280_pressure;Samples;Min_cycle;Max_cycle;Signal;HPM_P1;HPM_P2
2021/07/30 00:01:59;;;;;;;;;;;;;;;24.15;68.94;100353.78;5004313;28;1302;-40
2021/07/30 00:04:26;;;;;;;;;;;;;;;24.24;68.29;100354.56;5014367;28;1793;-41
2021/07/30 00:06:53;;;;;;;;;;;;;;;24.20;68.31;100344.13;5003900;28;1758;-40
2021/07/30 00:09:21;;;;;;;;;;;;;;;24.22;68.12;100346.66;5008988;28;1770;-41
2021/07/30 00:11:56;;;;;;;;;;;;;;;24.28;68.53;100350.50;5012010;28;1859;-41
2021/07/30 00:14:23;;;;;;;;;;;;;;;24.30;68.26;100345.75;5005993;28;1902;-40
2021/07/30 00:16:53;;;;;;;;;;;;;;;24.26;68.24;100352.53;5002552;28;1855;-42
2021/07/30 00:19:22;;;;;;;;;;;;;;;24.21;67.49;100353.06;5000024;28;1961;-40
2021/07/30 00:21:49;;;;;;;;;;;;;;;24.28;68.00;100345.91;5010279;28;1825;-41
2021/07/30 00:24:16;;;;;;;;;;;;;;;24.27;68.25;100338.00;5010328;28;1104;-40
2021/07/30 00:26:43;;;;;;;;;;;;;;;24.35;67.71;100351.44;5012044;28;1665;-40
2021/07/30 00:29:16;;;;;;;;;;;;;;;24.36;68.08;100342.31;5010979;28;1883;-40
2021/07/30 00:31:46;;;;;;;;;;;;;;;24.35;67.53;100335.22;5009897;28;1570;-41
2021/07/30 00:34:15;;;;;;;;;;;;;;;24.26;68.19;100341.72;4998452;28;1910;-41
2021/07/30 00:36:45;;;;;;;;;;;;;;;24.08;68.00;100350.97;5003513;28;1777;-41
2021/07/30 00:39:14;;;;;;;;;;;;;;;24.13;68.77;100332.38;4998264;28;1332;-41
2021/07/30 00:41:40;;;;;;;;;;;;;;;24.22;67.88;100330.44;5007461;28;1988;-40
2021/07/30 00:44:07;;;;;;;;;;;;;;;24.29;67.84;100335.94;4998639;28;1631;-40
2021/07/30 00:46:40;;;;;;;;;;;;;;;24.33;68.08;100342.66;5006526;28;1685;-40
2021/07/30 00:49:09;;;;;;;;;;;;;;;24.41;67.91;100353.41;5007346;28;1699;-40
2021/07/30 00:51:36;;;;;;;;;;;;;;;24.39;68.01;100336.53;5013678;28;1772;-41
2021/07/30 00:54:03;;;;;;;;;;;;;;;24.35;67.55;100337.91;4999274;28;1981;-40
2021/07/30 00:56:32;;;;;;;;;;;;;;;24.30;68.27;100332.25;4998921;28;2056;-41
2021/07/30 00:59:03;;;;;;;;;;;;;;;24.27;67.93;100343.41;5006722;28;1675;-40
2021/07/30 01:01:30;;;;;;;;;;;;;;;24.32;67.57;100351.81;5005838;28;1902;-41
2021/07/30 01:04:02;;;;;;;;;;;;;;;24.27;68.61;100348.78;4999289;28;1740;-41
2021/07/30 01:06:28;;;;;;;;;;;;;;;24.22;67.67;100350.19;5012103;28;1821;-40
2021/07/30 01:08:55;;;;;;;;;;;;;;;24.20;68.49;100371.13;5002194;28;1186;-40
2021/07/30 01:11:29;;;;;;;;;;;;;;;23.97;67.89;100371.13;5009776;28;1965;-40
2021/07/30 01:13:56;;;;;;;;;;;;;;;23.93;68.38;100336.53;5007679;28;2152;-41
2021/07/30 01:16:24;;;;;;;;;;;;;;;24.07;67.93;100326.81;5006142;28;1847;-40
2021/07/30 01:18:51;;;;;;;;;;;;;;;24.05;68.03;100332.41;5007212;28;1959;-40
2021/07/30 01:21:29;;;;;;;;;;;;;;;24.09;67.34;100358.03;4994509;28;1051;-40
2021/07/30 01:23:59;;;;;;;;;;;;;;;24.07;67.20;100349.25;5000655;28;1050;-41
2021/07/30 01:26:28;;;;;;;;;;;;;;;24.13;67.79;100342.31;5011020;28;1961;-40
2021/07/30 01:28:55;;;;;;;;;;;;;;;24.10;67.29;100350.78;5008556;28;1797;-41
2021/07/30 01:31:30;;;;;;;;;;;;;;;24.16;66.99;100361.72;5006950;28;1824;-40
2021/07/30 01:33:59;;;;;;;;;;;;;;;24.23;67.51;100356.41;5002400;28;1973;-41
2021/07/30 01:36:26;;;;;;;;;;;;;;;24.07;67.82;100340.34;5006512;28;999;-40
2021/07/30 01:38:52;;;;;;;;;;;;;;;24.09;68.36;100352.63;5001782;28;1894;-40
2021/07/30 01:41:27;;;;;;;;;;;;;;;24.20;67.69;100348.69;5002860;28;1921;-41
2021/07/30 01:43:55;;;;;;;;;;;;;;;24.26;67.24;100336.31;5003362;28;1928;-40
2021/07/30 01:46:22;;;;;;;;;;;;;;;24.31;67.74;100350.97;5004350;28;1747;-40
2021/07/30 01:48:51;;;;;;;;;;;;;;;24.29;67.40;100352.16;5004117;28;1966;-40
2021/07/30 01:51:20;;;;;;;;;;;;;;;24.09;67.91;100352.63;5013949;28;1024;-40
2021/07/30 01:53:48;;;;;;;;;;;;;;;24.14;67.53;100354.81;4995363;28;1912;-40
2021/07/30 01:56:18;;;;;;;;;;;;;;;24.25;68.13;100343.56;4998568;28;1782;-41
2021/07/30 01:58:48;;;;;;;;;;;;;;;24.16;68.31;100348.19;5013309;28;1472;-41
2021/07/30 02:01:14;;;;;;;;;;;;;;;24.20;67.51;100354.94;5105582;23;3776;-43
2021/07/30 02:03:40;;;;;;;;;;;;;;;24.16;67.38;100348.19;5020422;28;2249;-42
2021/07/30 02:06:08;;;;;;;;;;;;;;;24.05;68.57;100345.06;5023083;28;1871;-43
2021/07/30 02:08:35;;;;;;;;;;;;;;;24.11;68.37;100356.00;5022811;28;1834;-43
2021/07/30 02:11:01;;;;;;;;;;;;;;;24.17;68.06;100352.59;5021948;28;1923;-43
2021/07/30 02:16:13;;;;;;;;;;;;;;;24.26;67.99;100363.34;5020389;28;1641;-42
2021/07/30 02:18:39;;;;;;;;;;;;;;;24.32;67.59;100376.97;5021054;28;2218;-43
2021/07/30 02:21:05;;;;;;;;;;;;;;;24.29;67.84;100371.06;5028517;28;1589;-42
2021/07/30 02:23:32;;;;;;;;;;;;;;;24.25;67.94;100359.78;5020570;28;1914;-42
2021/07/30 02:25:58;;;;;;;;;;;;;;;24.26;67.99;100347.97;5032342;28;1658;-43
2021/07/30 02:28:25;;;;;;;;;;;;;;;24.26;66.85;100344.44;5014332;28;1613;-43
2021/07/30 02:30:51;;;;;;;;;;;;;;;24.04;68.51;100367.72;5023475;28;1749;-43
2021/07/30 02:33:19;;;;;;;;;;;;;;;24.04;68.64;100368.56;5021516;28;1877;-42
2021/07/30 02:35:46;;;;;;;;;;;;;;;24.15;68.07;100373.56;5017745;28;1998;-43
2021/07/30 02:38:12;;;;;;;;;;;;;;;24.20;68.44;100370.31;5022013;28;1957;-43
2021/07/30 02:40:39;;;;;;;;;;;;;;;24.20;67.95;100365.72;5022862;28;1887;-42
2021/07/30 02:43:05;;;;;;;;;;;;;;;24.17;67.50;100386.84;5017041;28;1905;-43
2021/07/30 02:45:32;;;;;;;;;;;;;;;24.16;67.44;100380.63;5018421;28;1819;-42
2021/07/30 02:47:58;;;;;;;;;;;;;;;24.10;67.90;100394.00;5020428;28;1807;-43
2021/07/30 02:50:26;;;;;;;;;;;;;;;24.13;67.93;100380.13;5020623;28;962;-43
2021/07/30 02:52:52;;;;;;;;;;;;;;;24.14;67.50;100404.28;5017513;28;1955;-43
2021/07/30 02:55:19;;;;;;;;;;;;;;;24.20;68.73;100408.97;5020461;28;1887;-43
2021/07/30 02:57:46;;;;;;;;;;;;;;;24.18;68.59;100411.00;5017998;28;2113;-43
2021/07/30 03:00:12;;;;;;;;;;;;;;;24.20;68.30;100422.47;5029242;28;1762;-43
2021/07/30 03:02:39;;;;;;;;;;;;;;;24.10;67.83;100429.13;5025873;28;1399;-43
2021/07/30 03:05:06;;;;;;;;;;;;;;;24.07;68.08;100408.69;5028671;28;1837;-43
2021/07/30 03:07:34;;;;;;;;;;;;;;;24.14;68.09;100414.25;5024821;28;1758;-43
2021/07/30 03:10:00;;;;;;;;;;;;;;;24.20;67.91;100422.47;5021859;28;1802;-43
2021/07/30 03:12:27;;;;;;;;;;;;;;;24.09;68.40;100403.13;5017936;28;1796;-42
2021/07/30 03:14:53;;;;;;;;;;;;;;;23.98;68.09;100415.19;5023900;28;1898;-42
2021/07/30 03:17:19;;;;;;;;;;;;;;;23.90;68.32;100413.34;5024413;28;1781;-43
2021/07/30 03:19:46;;;;;;;;;;;;;;;23.84;68.39;100411.38;5024139;28;1088;-43
2021/07/30 03:22:12;;;;;;;;;;;;;;;23.78;69.22;100415.59;5031739;28;1892;-43
2021/07/30 03:24:40;;;;;;;;;;;;;;;23.92;68.58;100407.78;5023613;28;1525;-43
2021/07/30 03:27:07;;;;;;;;;;;;;;;24.03;68.56;100412.78;5018501;28;1834;-43
2021/07/30 03:29:33;;;;;;;;;;;;;;;24.12;67.87;100414.41;5021075;28;1733;-42
2021/07/30 03:32:00;;;;;;;;;;;;;;;23.99;68.68;100415.00;5025370;28;1880;-43
2021/07/30 03:34:27;;;;;;;;;;;;;;;23.99;68.43;100427.66;5022093;28;2042;-44
2021/07/30 03:36:54;;;;;;;;;;;;;;;23.94;68.75;100424.66;5023646;28;1721;-43
2021/07/30 03:39:20;;;;;;;;;;;;;;;23.99;68.62;100415.00;5024505;28;1859;-43
2021/07/30 03:41:51;;;;;;;;;;;;;;;24.03;69.08;100423.56;5019738;28;2944;-43
2021/07/30 03:44:17;;;;;;;;;;;;;;;23.96;68.46;100434.25;5016257;28;1817;-43
2021/07/30 03:46:44;;;;;;;;;;;;;;;23.95;69.13;100426.31;5023558;28;1626;-43
2021/07/30 03:49:10;;;;;;;;;;;;;;;24.06;69.33;100428.63;5017088;28;2037;-43
2021/07/30 03:51:37;;;;;;;;;;;;;;;24.17;68.11;100412.03;5013992;28;1635;-43
2021/07/30 03:54:03;;;;;;;;;;;;;;;24.26;67.93;100420.09;5023049;28;1984;-42
2021/07/30 03:56:29;;;;;;;;;;;;;;;24.27;68.05;100413.66;5027212;28;1898;-43
2021/07/30 03:58:57;;;;;;;;;;;;;;;24.20;68.32;100392.75;5025019;28;1267;-42
2021/07/30 04:01:24;;;;;;;;;;;;;;;24.20;67.83;100384.66;5024641;28;1932;-43
2021/07/30 04:03:50;;;;;;;;;;;;;;;24.27;68.46;100346.94;5013839;28;1985;-43
2021/07/30 04:06:17;;;;;;;;;;;;;;;24.24;68.11;100359.97;5023922;28;1123;-42
2021/07/30 04:08:45;;;;;;;;;;;;;;;24.18;69.07;100361.53;5025421;28;1933;-43
2021/07/30 04:11:11;;;;;;;;;;;;;;;24.24;68.39;100381.59;5022361;28;1829;-42
2021/07/30 04:13:38;;;;;;;;;;;;;;;24.18;69.14;100404.75;5022967;28;1735;-42
2021/07/30 04:16:07;;;;;;;;;;;;;;;24.22;69.75;100420.44;5021012;28;1950;-42
2021/07/30 04:18:36;;;;;;;;;;;;;;;24.22;69.14;100428.53;5016965;28;1565;-42
2021/07/30 04:21:04;;;;;;;;;;;;;;;24.11;69.53;100428.94;5024469;28;1357;-43
2021/07/30 04:23:31;;;;;;;;;;;;;;;24.10;69.48;100413.75;5020862;28;1907;-43
2021/07/30 04:26:00;;;;;;;;;;;;;;;24.09;70.35;100422.03;5019107;28;1674;-43
2021/07/30 04:28:27;;;;;;;;;;;;;;;24.18;70.56;100427.22;5021690;28;1155;-43
2021/07/30 04:30:56;;;;;;;;;;;;;;;24.35;69.11;100441.47;5019418;28;1994;-42
2021/07/30 04:33:28;;;;;;;;;;;;;;;24.35;69.40;100422.56;5021367;28;1827;-43
2021/07/30 04:38:39;;;;;;;;;;;;;;;24.45;68.42;100440.38;5022535;28;1717;-43
2021/07/30 04:41:10;;;;;;;;;;;;;;;24.44;68.51;100458.47;5022463;28;1819;-42
2021/07/30 04:43:37;;;;;;;;;;;;;;;24.48;68.15;100429.22;5015147;28;1822;-43
2021/07/30 04:46:11;;;;;;;;;;;;;;;24.53;68.38;100425.00;5020543;28;1770;-42
2021/07/30 04:48:44;;;;;;;;;;;;;;;24.56;68.06;100442.72;5029535;28;1672;-42
2021/07/30 04:51:21;;;;;;;;;;;;;;;24.63;67.98;100426.59;5032833;28;1138;-42
2021/07/30 04:53:50;;;;;;;;;;;;;;;24.78;66.88;100449.13;5030367;28;1885;-43
2021/07/30 04:56:19;;;;;;;;;;;;;;;24.82;66.30;100431.50;5020692;28;1967;-42
2021/07/30 04:58:48;;;;;;;;;;;;;;;24.86;66.97;100435.53;5026942;28;1138;-43
2021/07/30 05:01:15;;;;;;;;;;;;;;;24.95;67.20;100439.03;5022852;28;1939;-43
2021/07/30 05:03:44;;;;;;;;;;;;;;;25.01;66.62;100443.69;5013011;28;1449;-42
2021/07/30 05:06:17;;;;;;;;;;;;;;;24.97;66.84;100429.69;5017022;28;2157;-42
2021/07/30 05:08:45;;;;;;;;;;;;;;;24.98;66.25;100433.22;5015917;28;1698;-42
2021/07/30 05:11:15;;;;;;;;;;;;;;;25.05;66.11;100445.00;5029115;28;1954;-42
2021/07/30 05:13:45;;;;;;;;;;;;;;;25.06;67.64;100443.16;5019432;28;1691;-42
2021/07/30 05:16:13;;;;;;;;;;;;;;;25.10;67.45;100444.44;5030914;28;2042;-42
2021/07/30 05:18:39;;;;;;;;;;;;;;;25.11;67.11;100451.53;5027768;28;1837;-43
2021/07/30 05:21:13;;;;;;;;;;;;;;;25.12;67.32;100453.22;5031543;28;1961;-42
2021/07/30 05:23:43;;;;;;;;;;;;;;;25.08;66.52;100446.50;5015418;28;1819;-43
2021/07/30 05:26:12;;;;;;;;;;;;;;;25.05;66.48;100445.00;5013994;28;2021;-42
2021/07/30 05:28:38;;;;;;;;;;;;;;;25.08;67.02;100444.63;5021147;28;1789;-42
2021/07/30 05:31:26;;;;;;;;;;;;;;;25.16;66.96;100451.84;5023697;28;1584;-42
2021/07/30 05:33:53;;;;;;;;;;;;;;;25.19;67.36;100449.59;5015568;28;1522;-42
2021/07/30 05:36:25;;;;;;;;;;;;;;;25.17;68.06;100448.13;5030939;28;1985;-42
2021/07/30 05:38:53;;;;;;;;;;;;;;;25.16;67.75;100431.03;5016003;28;1577;-42
2021/07/30 05:41:19;;;;;;;;;;;;;;;25.22;67.57;100448.41;5013611;28;1799;-42
2021/07/30 05:43:47;;;;;;;;;;;;;;;25.18;67.73;100442.50;5021953;28;1700;-42
2021/07/30 05:46:14;;;;;;;;;;;;;;;25.19;66.99;100451.47;5017168;28;1753;-42
2021/07/30 05:48:40;;;;;;;;;;;;;;;25.17;67.11;100448.94;5020886;28;1710;-42
2021/07/30 05:51:07;;;;;;;;;;;;;;;25.13;67.83;100444.09;5026639;28;1680;-42
2021/07/30 05:53:35;;;;;;;;;;;;;;;25.17;67.28;100448.13;5025565;28;1850;-42
2021/07/30 05:56:02;;;;;;;;;;;;;;;25.17;66.99;100434.59;5012201;28;1954;-44
2021/07/30 05:58:28;;;;;;;;;;;;;;;25.17;67.45;100453.53;5020535;28;1068;-43
2021/07/30 06:00:54;;;;;;;;;;;;;;;25.15;67.00;100461.81;5025724;28;1787;-43
2021/07/30 06:03:21;;;;;;;;;;;;;;;25.15;67.53;100461.00;5015651;28;1537;-42
2021/07/30 06:05:47;;;;;;;;;;;;;;;25.16;67.56;100452.66;5017165;28;1928;-42
2021/07/30 06:08:14;;;;;;;;;;;;;;;25.18;66.98;100455.19;5025455;28;1896;-42
2021/07/30 06:10:42;;;;;;;;;;;;;;;25.19;66.73;100446.91;5019801;28;1740;-42
2021/07/30 06:13:09;;;;;;;;;;;;;;;25.20;66.86;100453.16;5021752;28;1894;-43
2021/07/30 06:15:35;;;;;;;;;;;;;;;25.20;67.03;100453.97;5015639;28;1977;-43
2021/07/30 06:18:02;;;;;;;;;;;;;;;25.22;66.90;100451.13;5021915;28;1820;-43
2021/07/30 06:20:29;;;;;;;;;;;;;;;25.19;67.53;100446.06;5017973;28;1499;-43
2021/07/30 06:22:55;;;;;;;;;;;;;;;25.19;67.14;100437.94;5018257;28;1958;-42
2021/07/30 06:25:21;;;;;;;;;;;;;;;25.22;66.54;100437.59;5017208;28;998;-42
2021/07/30 06:27:49;;;;;;;;;;;;;;;25.19;67.45;100441.50;5017516;28;1690;-42
2021/07/30 06:30:16;;;;;;;;;;;;;;;25.21;66.67;100435.91;5020495;28;1744;-43
2021/07/30 06:32:43;;;;;;;;;;;;;;;25.24;66.59;100449.06;5025838;28;1814;-42
2021/07/30 06:35:10;;;;;;;;;;;;;;;25.24;66.28;100448.25;5024750;28;1977;-42
2021/07/30 06:37:37;;;;;;;;;;;;;;;25.20;67.26;100445.84;5025584;28;1930;-42
2021/07/30 06:40:05;;;;;;;;;;;;;;;25.25;66.78;100450.78;5026726;28;1748;-42
2021/07/30 06:42:32;;;;;;;;;;;;;;;25.26;66.14;100432.66;5024425;28;1785;-43
2021/07/30 06:45:00;;;;;;;;;;;;;;;25.24;66.21;100442.81;5016260;28;2375;-43
2021/07/30 06:47:26;;;;;;;;;;;;;;;25.27;66.40;100435.19;5025142;28;1829;-43
2021/07/30 06:49:53;;;;;;;;;;;;;;;25.27;66.22;100446.00;5020839;28;1665;-42
2021/07/30 06:52:19;;;;;;;;;;;;;;;25.25;66.74;100441.78;5031734;28;2102;-42
2021/07/30 06:54:46;;;;;;;;;;;;;;;25.25;66.53;100447.19;5017492;28;1975;-42
2021/07/30 06:57:12;;;;;;;;;;;;;;;25.30;66.14;100442.91;5020468;28;1976;-42
2021/07/30 06:59:39;;;;;;;;;;;;;;;25.17;68.35;100437.28;5020226;28;1866;-42
2021/07/30 07:02:07;;;;;;;;;;;;;;;25.23;67.37;100443.84;5025558;28;1451;-42
2021/07/30 07:04:34;;;;;;;;;;;;;;;25.19;66.57;100435.25;5030070;28;2050;-42
2021/07/30 07:07:03;;;;;;;;;;;;;;;25.20;66.89;100432.31;5019528;28;1958;-43
2021/07/30 07:09:30;;;;;;;;;;;;;;;25.19;67.76;100425.25;5024604;28;1869;-43
2021/07/30 07:11:56;;;;;;;;;;;;;;;25.21;67.03;100427.78;5022226;28;1561;-42
2021/07/30 07:14:23;;;;;;;;;;;;;;;25.19;67.51;100441.50;5025317;28;1008;-42
2021/07/30 07:16:49;;;;;;;;;;;;;;;25.22;66.85;100444.88;5026866;28;1906;-42
2021/07/30 07:19:17;;;;;;;;;;;;;;;25.18;67.51;100456.03;5026226;28;1823;-43
2021/07/30 07:21:43;;;;;;;;;;;;;;;25.19;66.86;100448.78;5015836;28;2011;-43
2021/07/30 07:24:10;;;;;;;;;;;;;;;25.21;66.82;100444.03;5025314;28;1092;-42
2021/07/30 07:26:38;;;;;;;;;;;;;;;25.17;67.61;100435.41;5017837;28;1879;-43
2021/07/30 07:29:05;;;;;;;;;;;;;;;25.19;67.13;100435.25;5023799;28;1760;-43
2021/07/30 07:31:31;;;;;;;;;;;;;;;25.19;66.63;100421.72;5023546;28;1808;-43
2021/07/30 07:33:57;;;;;;;;;;;;;;;25.20;67.58;100436.91;5024821;28;1565;-43
2021/07/30 07:36:25;;;;;;;;;;;;;;;25.20;66.86;100447.72;5025633;28;2089;-42
2021/07/30 07:38:52;;;;;;;;;;;;;;;25.19;67.24;100437.94;5026085;28;1877;-42
2021/07/30 07:41:18;;;;;;;;;;;;;;;25.22;66.94;100429.47;5024579;28;1816;-43
2021/07/30 07:43:45;;;;;;;;;;;;;;;25.22;67.37;100439.47;5023647;28;1773;-42
2021/07/30 07:46:11;;;;;;;;;;;;;;;25.21;66.63;100449.44;5023411;28;1809;-42
2021/07/30 07:48:38;;;;;;;;;;;;;;;25.24;66.86;100450.94;5023602;28;1700;-42
2021/07/30 07:51:04;;;;;;;;;;;;;;;25.19;67.64;100437.94;5022766;28;1946;-42
2021/07/30 07:53:32;;;;;;;;;;;;;;;25.22;66.75;100436.75;5021604;28;2075;-42
2021/07/30 07:56:02;;;;;;;;;;;;;;;25.21;66.78;100433.19;5024556;28;1971;-44
2021/07/30 07:58:29;;;;;;;;;;;;;;;25.23;66.49;100450.13;5024897;28;1063;-43
2021/07/30 08:00:55;;;;;;;;;;;;;;;25.22;66.54;100445.72;5019002;28;1931;-42
2021/07/30 08:03:22;;;;;;;;;;;;;;;25.20;67.14;100437.75;5030925;28;1564;-43
2021/07/30 08:05:48;;;;;;;;;;;;;;;25.25;66.53;100439.09;5022243;28;1815;-42
2021/07/30 08:08:15;;;;;;;;;;;;;;;25.22;67.28;100423.22;5027577;28;2070;-42
2021/07/30 08:10:42;;;;;;;;;;;;;;;25.22;67.15;100426.78;5021341;28;1748;-42
2021/07/30 08:13:09;;;;;;;;;;;;;;;25.23;67.16;100414.06;5023500;28;1878;-43
2021/07/30 08:15:35;;;;;;;;;;;;;;;25.26;66.86;100435.38;5023060;28;1908;-43
2021/07/30 08:18:02;;;;;;;;;;;;;;;25.27;67.27;100420.78;5025605;28;1797;-43
2021/07/30 08:20:28;;;;;;;;;;;;;;;25.27;66.53;100423.50;5024509;28;1452;-42
2021/07/30 08:22:55;;;;;;;;;;;;;;;25.26;66.52;100422.66;5026215;28;1899;-42
2021/07/30 08:25:21;;;;;;;;;;;;;;;25.28;66.62;100414.38;5028487;28;1060;-42
2021/07/30 08:27:49;;;;;;;;;;;;;;;25.24;67.40;100405.78;5026873;28;2056;-44
2021/07/30 08:30:15;;;;;;;;;;;;;;;25.29;66.49;100419.59;5020335;28;1945;-42
2021/07/30 08:32:42;;;;;;;;;;;;;;;25.27;66.43;100404.56;5023742;28;1817;-42
2021/07/30 08:35:09;;;;;;;;;;;;;;;25.28;66.45;100409.78;5023989;28;1975;-42
2021/07/30 08:37:35;;;;;;;;;;;;;;;25.25;67.07;100404.75;5021969;28;1902;-42
2021/07/30 08:40:02;;;;;;;;;;;;;;;25.26;66.33;100403.72;5019689;28;1732;-42
2021/07/30 08:42:35;;;;;;;;;;;;;;;25.27;66.39;100408.13;5025417;28;1805;-42
2021/07/30 08:45:03;;;;;;;;;;;;;;;25.26;66.85;100406.44;5023071;28;1736;-43
2021/07/30 08:47:30;;;;;;;;;;;;;;;25.27;67.17;100396.44;5022961;28;1819;-42
2021/07/30 08:49:57;;;;;;;;;;;;;;;25.25;67.31;100402.06;5021945;28;1064;-42
2021/07/30 08:52:27;;;;;;;;;;;;;;;25.27;66.33;100405.41;5027414;28;1921;-43
2021/07/30 08:54:54;;;;;;;;;;;;;;;25.25;66.99;100391.22;5021623;28;1139;-43
2021/07/30 08:57:20;;;;;;;;;;;;;;;25.31;66.55;100405.88;5019197;28;1906;-43
2021/07/30 08:59:47;;;;;;;;;;;;;;;25.31;66.30;100395.06;5021445;28;1929;-43
2021/07/30 09:02:14;;;;;;;;;;;;;;;25.28;67.12;100396.25;5021309;28;1538;-42
2021/07/30 09:04:41;;;;;;;;;;;;;;;25.28;66.49;100390.84;5014743;28;1758;-43
2021/07/30 09:07:08;;;;;;;;;;;;;;;25.27;66.70;100378.34;5021647;28;1798;-43
2021/07/30 09:09:34;;;;;;;;;;;;;;;25.28;67.15;100373.78;5024401;28;1951;-43
2021/07/30 09:12:01;;;;;;;;;;;;;;;25.28;66.83;100380.00;5019147;28;1877;-42
2021/07/30 09:14:32;;;;;;;;;;;;;;;25.32;66.70;100377.78;5027126;28;1715;-42
2021/07/30 09:16:59;;;;;;;;;;;;;;;25.32;66.23;100377.78;5017711;28;1903;-43
2021/07/30 09:19:27;;;;;;;;;;;;;;;25.28;67.03;100369.19;5025145;28;1891;-43
2021/07/30 09:22:02;;;;;;;;;;;;;;;25.28;66.26;100368.38;5017016;28;1789;-43
2021/07/30 09:24:33;;;;;;;;;;;;;;;25.27;66.25;100362.13;5021317;28;1091;-43
2021/07/30 09:27:00;;;;;;;;;;;;;;;25.29;66.99;100373.59;5015672;28;1862;-42
2021/07/30 09:29:28;;;;;;;;;;;;;;;25.33;67.14;100366.78;5019364;28;1742;-43
2021/07/30 09:31:55;;;;;;;;;;;;;;;25.29;67.01;100354.66;5024472;28;1809;-42
2021/07/30 09:34:23;;;;;;;;;;;;;;;25.27;67.11;100348.59;5022473;28;1946;-43
2021/07/30 09:36:51;;;;;;;;;;;;;;;25.35;67.04;100358.47;5022294;28;1972;-43
2021/07/30 09:39:19;;;;;;;;;;;;;;;25.31;67.08;100346.34;5023526;28;1487;-44
2021/07/30 09:41:55;;;;;;;;;;;;;;;25.36;66.21;100366.38;5020505;28;1900;-42
2021/07/30 09:44:22;;;;;;;;;;;;;;;25.33;66.15;100355.94;5020477;28;2221;-42
2021/07/30 09:47:07;;;;;;;;;;;;;;;25.30;66.35;100347.38;5025656;28;1901;-43
2021/07/30 09:49:40;;;;;;;;;;;;;;;25.33;66.58;100361.38;5023401;28;1691;-42
2021/07/30 09:52:10;;;;;;;;;;;;;;;25.35;66.30;100353.91;5014835;28;1774;-42
2021/07/30 09:54:38;;;;;;;;;;;;;;;25.35;66.44;100345.78;5021268;28;1162;-42
2021/07/30 09:57:06;;;;;;;;;;;;;;;25.36;66.24;100355.56;5017780;28;2223;-43
2021/07/30 09:59:33;;;;;;;;;;;;;;;25.30;66.99;100321.13;5022595;28;1766;-43
2021/07/30 10:02:00;;;;;;;;;;;;;;;25.37;66.71;100345.59;5021836;28;1427;-42
2021/07/30 10:04:27;;;;;;;;;;;;;;;25.36;67.02;100322.25;5031359;28;1721;-42
2021/07/30 10:06:54;;;;;;;;;;;;;;;25.34;66.12;100341.38;5024778;28;1986;-42
2021/07/30 10:09:22;;;;;;;;;;;;;;;25.33;66.87;100318.06;5025111;28;1903;-43
2021/07/30 10:11:48;;;;;;;;;;;;;;;25.34;66.81;100313.47;5026842;28;1676;-44
2021/07/30 10:14:17;;;;;;;;;;;;;;;25.36;66.29;100316.84;5026463;28;2166;-43
2021/07/30 10:16:50;;;;;;;;;;;;;;;25.31;66.69;100309.28;5021906;28;1906;-43
2021/07/30 10:19:17;;;;;;;;;;;;;;;25.36;66.84;100308.72;5029251;28;1833;-44
2021/07/30 10:21:44;;;;;;;;;;;;;;;25.33;66.31;100311.81;5016344;28;2103;-44
2021/07/30 10:24:11;;;;;;;;;;;;;;;25.34;66.03;100319.72;5025339;28;1002;-42
2021/07/30 10:26:40;;;;;;;;;;;;;;;25.34;67.03;100300.78;5032625;28;1737;-42
2021/07/30 10:29:07;;;;;;;;;;;;;;;25.37;66.91;100310.41;5025301;28;1777;-42
2021/07/30 10:31:47;;;;;;;;;;;;;;;25.37;66.96;100303.13;5026014;28;1722;-43
2021/07/30 10:34:14;;;;;;;;;;;;;;;25.36;66.07;100317.66;5026933;28;1004;-42
2021/07/30 10:36:40;;;;;;;;;;;;;;;25.34;66.64;100281.81;5029176;28;2011;-42
2021/07/30 10:39:08;;;;;;;;;;;;;;;25.37;66.34;100297.72;5024673;28;1869;-42
2021/07/30 10:41:34;;;;;;;;;;;;;;;25.37;66.08;100297.72;5025188;28;1895;-43
2021/07/30 10:44:06;;;;;;;;;;;;;;;25.38;66.02;100299.38;5027691;28;1862;-43
2021/07/30 10:46:33;;;;;;;;;;;;;;;25.36;66.24;100282.47;5023281;28;1787;-43
2021/07/30 10:48:59;;;;;;;;;;;;;;;25.37;66.17;100292.28;5025367;28;1796;-42
2021/07/30 10:51:27;;;;;;;;;;;;;;;25.39;67.09;100276.69;5024238;28;990;-44
2021/07/30 10:53:54;;;;;;;;;;;;;;;25.38;66.08;100269.59;5023397;28;1861;-43
2021/07/30 10:56:48;;;;;;;;;;;;;;;25.37;66.67;100292.28;5032611;28;1981;-42
2021/07/30 10:59:23;;;;;;;;;;;;;;;25.37;66.15;100264.41;5024190;28;1073;-43
2021/07/30 11:02:02;;;;;;;;;;;;;;;25.38;66.14;100256.06;5024066;28;1412;-42
2021/07/30 11:04:29;;;;;;;;;;;;;;;25.37;66.81;100254.41;5031468;28;1993;-42
2021/07/30 11:06:56;;;;;;;;;;;;;;;25.37;66.58;100253.56;5026404;28;1055;-43
2021/07/30 11:09:38;;;;;;;;;;;;;;;25.40;66.20;100264.00;5027617;28;1940;-42
2021/07/30 11:12:07;;;;;;;;;;;;;;;25.37;66.34;100226.50;5026475;28;1830;-42
2021/07/30 11:14:36;;;;;;;;;;;;;;;25.37;66.41;100254.41;5020052;28;1846;-43
2021/07/30 11:17:04;;;;;;;;;;;;;;;25.38;66.67;100239.81;5025026;28;1918;-42
2021/07/30 11:19:31;;;;;;;;;;;;;;;25.40;66.15;100240.47;5024774;28;1754;-42
2021/07/30 11:21:59;;;;;;;;;;;;;;;25.38;66.66;100237.13;5019812;28;1676;-42
2021/07/30 11:24:25;;;;;;;;;;;;;;;25.40;66.62;100226.94;5026327;28;1207;-42
2021/07/30 11:26:52;;;;;;;;;;;;;;;25.39;66.60;100225.28;5030650;28;1874;-43
2021/07/30 11:29:20;;;;;;;;;;;;;;;25.44;66.88;100248.22;5026867;28;1821;-42
2021/07/30 11:31:55;;;;;;;;;;;;;;;25.40;66.87;100242.34;5025536;28;1818;-42
2021/07/30 11:34:24;;;;;;;;;;;;;;;25.39;66.26;100236.09;5025488;28;1740;-42
2021/07/30 11:36:50;;;;;;;;;;;;;;;25.43;66.80;100241.13;5024425;28;1907;-42
2021/07/30 11:39:17;;;;;;;;;;;;;;;25.43;66.38;100231.16;5023836;28;1186;-42
2021/07/30 11:41:48;;;;;;;;;;;;;;;25.43;66.41;100235.69;5026189;28;2174;-42
2021/07/30 11:44:14;;;;;;;;;;;;;;;25.43;66.77;100241.13;5021146;28;2023;-43
2021/07/30 11:46:41;;;;;;;;;;;;;;;25.43;66.76;100227.59;5028542;28;1979;-42
2021/07/30 11:49:10;;;;;;;;;;;;;;;25.44;66.22;100215.75;5020339;28;1747;-42
2021/07/30 11:51:39;;;;;;;;;;;;;;;25.42;67.05;100223.22;5031680;28;1795;-43
2021/07/30 11:54:05;;;;;;;;;;;;;;;25.44;66.63;100194.09;5026480;28;1097;-42
2021/07/30 11:56:42;;;;;;;;;;;;;;;25.42;66.88;100206.97;5015832;28;1979;-43
2021/07/30 11:59:08;;;;;;;;;;;;;;;25.47;66.08;100220.78;5025787;28;1087;-42
2021/07/30 12:01:35;;;;;;;;;;;;;;;25.45;66.16;100201.19;5022413;28;1810;-42
2021/07/30 12:04:09;;;;;;;;;;;;;;;25.42;66.23;100196.97;5033170;28;1719;-42
2021/07/30 12:06:38;;;;;;;;;;;;;;;25.44;66.95;100199.50;5023430;28;1793;-43
2021/07/30 12:09:05;;;;;;;;;;;;;;;25.42;65.94;100183.44;5025511;28;1286;-42
2021/07/30 12:11:32;;;;;;;;;;;;;;;25.48;66.04;100187.25;5021755;28;1634;-42
2021/07/30 12:13:58;;;;;;;;;;;;;;;25.46;66.27;100192.03;5022323;28;1998;-42
2021/07/30 12:16:25;;;;;;;;;;;;;;;25.47;66.00;100185.59;5028914;28;1974;-43
2021/07/30 12:18:51;;;;;;;;;;;;;;;25.46;66.41;100173.06;5023411;28;1902;-42
2021/07/30 12:21:19;;;;;;;;;;;;;;;25.44;66.10;100170.56;5017478;28;1084;-42
2021/07/30 12:23:46;;;;;;;;;;;;;;;25.43;66.69;100171.59;5026368;28;1736;-42
2021/07/30 12:26:27;;;;;;;;;;;;;;;25.51;66.92;100181.47;5014048;28;1825;-43
2021/07/30 12:28:53;;;;;;;;;;;;;;;25.47;66.86;100172.06;5023514;28;1797;-42
2021/07/30 12:31:20;;;;;;;;;;;;;;;25.47;66.80;100172.88;5022652;28;1884;-43
2021/07/30 12:33:47;;;;;;;;;;;;;;;25.47;65.94;100161.22;5022116;28;1079;-43
2021/07/30 12:36:14;;;;;;;;;;;;;;;25.49;66.65;100165.41;5026760;28;1708;-43
2021/07/30 12:38:52;;;;;;;;;;;;;;;25.48;66.36;100162.88;5024776;28;1902;-42
2021/07/30 12:41:20;;;;;;;;;;;;;;;25.46;67.01;100152.25;5019947;28;1920;-42
2021/07/30 12:43:46;;;;;;;;;;;;;;;25.49;66.14;100159.16;5027528;28;1721;-42
2021/07/30 12:46:29;;;;;;;;;;;;;;;25.42;66.53;100142.84;5024493;28;2045;-42
2021/07/30 12:48:56;;;;;;;;;;;;;;;25.46;66.69;100151.41;5023993;28;1754;-42
2021/07/30 12:51:23;;;;;;;;;;;;;;;25.48;66.14;100146.66;5018340;28;1183;-42
2021/07/30 12:54:04;;;;;;;;;;;;;;;25.48;66.06;100141.22;5026040;28;1766;-42
2021/07/30 12:56:49;;;;;;;;;;;;;;;25.49;66.93;100142.91;5016530;28;1981;-43
2021/07/30 12:59:15;;;;;;;;;;;;;;;25.48;65.96;100131.22;5023610;28;1089;-42